John F Kennedy International Airport
KJFK : rendu visible

Aérodrome :











RETROUVEZ-NOUS SUR...

 
LOGIN :

S'inscrire | Disclaimer

   EN    FR    IT 

 









Légende :    VFR   VFR Marginal   IFR   IFR Intensif   IFR Très Intensif
Visi : 
Plafond : 
>= 8 km
>= 3000ft
5 à 8 km
1000 à 3000 ft
1500m à 5 km
500 à 1000 ft
800 à 1500m
200 à 500 ft
< 800m
< 200 ft
Symboles :   Orages  Brouillard  Fortes neiges  Fortes précipitations  Vent > 20 kt







- Altitude de l'aérodrome : 13 ft
- Code IATA : JFK


KJFK - John F Kennedy International

DERNIER METAR :
  • 181251Z 34010G19KT 10SM FEW100 FEW250 03/M09 A3030 RMK AO2 SLP259 T00281094

METARs EXPIRÉS :
  • 181151Z 00000KT 10SM FEW090 FEW250 01/M08 A3029 RMK AO2 SLP256 T00061078 10006 21022 53012
  • 181051Z 34004KT 10SM FEW090 FEW250 M01/M11 A3028 RMK AO2 SLP251 T10061106

TAF KJFK
Valide du 18 à 12h jusqu'au 19 à 18h UTC


181122Z 1812/1918 VRB05KT P6SM SCT060
FM181700 22010KT P6SM BKN060
FM190300 24008KT P6SM BKN060
FM190600 28005KT P6SM SCT060
FM191300 32008KT P6SM SCT250
FIR KZNY / Amérique du Nord



MET'MAP, la Météo Aéronautique d'un coup d'oeil ! - Copyright ORBIFLY Décembre 2007 - Disclaimer

ORBIFLY MET'MAP TEAM :

Programmation & Développement : Alexandra Zaïnal
Conception & Développement : Baudouin d'Aumeries
Co-Programmation & Développement : Marc-Olivier Méhu
Soutien technique & logistique : Manuel Goepfert

Contact : metmap@orbifly.com




SOURCES & CREDITS :

   NOAA       Earth
Advisory